Time;durP1;ratioP1;P1;durP2;ratioP2;P2;SDS_P1;SDS_P2;PMS_P1;PMS_P2;Temp;Humidity;BMP_temperature;BMP_pressure;BME280_temperature;BME280_humidity;BME280_pressure;Samples;Min_cycle;Max_cycle;Signal;HPM_P1;HPM_P2
2021/12/12 00:02:08;;;;;;;79.45;38.17;;;;;;;;;;5008391;28;20026;-75
2021/12/12 00:04:36;;;;;;;70.60;34.10;;;;;;;;;;5011251;28;20113;-76
2021/12/12 00:07:05;;;;;;;29.70;14.40;;;;;;;;;;4985463;28;20021;-75
2021/12/12 00:09:36;;;;;;;12.50;7.55;;;;;;;;;;5012380;28;20033;-73
2021/12/12 00:12:05;;;;;;;27.92;12.13;;;;;;;;;;5015747;28;20026;-75
2021/12/12 00:14:34;;;;;;;11.20;6.50;;;;;;;;;;5009998;28;20058;-74
2021/12/12 00:17:01;;;;;;;11.85;6.88;;;;;;;;;;5015747;28;20026;-75
2021/12/12 00:19:28;;;;;;;7.32;5.30;;;;;;;;;;5010483;28;20038;-75
2021/12/12 00:21:57;;;;;;;9.13;5.85;;;;;;;;;;4998386;28;20042;-75
2021/12/12 00:24:23;;;;;;;7.80;4.55;;;;;;;;;;5011573;28;20112;-74
2021/12/12 00:26:50;;;;;;;12.13;4.22;;;;;;;;;;5012963;28;20528;-75
2021/12/12 00:29:17;;;;;;;7.45;4.78;;;;;;;;;;5002970;28;20029;-75
2021/12/12 00:31:44;;;;;;;6.95;3.75;;;;;;;;;;5006857;28;20033;-74
2021/12/12 00:34:11;;;;;;;18.65;4.43;;;;;;;;;;5007170;28;20038;-75
2021/12/12 00:36:40;;;;;;;6.13;3.20;;;;;;;;;;5013568;28;20034;-75
2021/12/12 00:39:09;;;;;;;7.68;3.95;;;;;;;;;;5013575;28;20026;-75
2021/12/12 00:41:39;;;;;;;12.00;3.80;;;;;;;;;;5010228;28;20060;-74
2021/12/12 00:44:05;;;;;;;5.80;4.13;;;;;;;;;;5016133;28;20037;-75
2021/12/12 00:46:32;;;;;;;6.55;4.03;;;;;;;;;;5000694;28;20535;-74
2021/12/12 00:48:58;;;;;;;9.13;3.35;;;;;;;;;;5015404;28;20029;-74
2021/12/12 00:51:28;;;;;;;7.38;3.75;;;;;;;;;;5009957;28;20229;-74
2021/12/12 00:53:57;;;;;;;10.23;4.63;;;;;;;;;;5007227;28;20042;-74
2021/12/12 00:56:24;;;;;;;9.82;3.47;;;;;;;;;;5000142;28;20026;-76
2021/12/12 00:58:50;;;;;;;7.10;3.13;;;;;;;;;;5012016;28;20049;-75
2021/12/12 01:01:37;;;;;;;3.75;2.78;;;;;;;;;;5001703;28;20068;-75
2021/12/12 01:04:09;;;;;;;7.25;3.13;;;;;;;;;;5003387;28;20026;-74
2021/12/12 01:06:36;;;;;;;5.45;3.20;;;;;;;;;;5013901;28;20037;-75
2021/12/12 01:09:05;;;;;;;7.03;3.03;;;;;;;;;;4980532;28;20054;-76
2021/12/12 01:11:40;;;;;;;6.30;3.20;;;;;;;;;;5002802;28;20029;-74
2021/12/12 01:14:08;;;;;;;8.63;3.20;;;;;;;;;;5004304;28;20057;-74
2021/12/12 01:16:44;;;;;;;10.85;3.58;;;;;;;;;;4996430;28;20026;-74
2021/12/12 01:19:17;;;;;;;8.68;3.00;;;;;;;;;;4986297;28;20512;-74
2021/12/12 01:21:47;;;;;;;8.35;3.13;;;;;;;;;;5015034;28;20034;-76
2021/12/12 01:24:19;;;;;;;5.15;3.22;;;;;;;;;;5008567;28;20026;-75
2021/12/12 01:26:46;;;;;;;7.45;3.00;;;;;;;;;;5013719;28;20022;-74
2021/12/12 01:29:16;;;;;;;6.25;3.10;;;;;;;;;;5011098;28;20033;-75
2021/12/12 01:31:47;;;;;;;7.32;2.90;;;;;;;;;;5012043;28;20072;-76
2021/12/12 01:34:15;;;;;;;7.88;2.85;;;;;;;;;;5009038;28;20030;-74
2021/12/12 01:37:04;;;;;;;8.48;3.53;;;;;;;;;;5003941;28;20386;-75
2021/12/12 01:39:36;;;;;;;5.20;2.78;;;;;;;;;;5005921;28;20386;-75
2021/12/12 01:42:04;;;;;;;5.93;3.08;;;;;;;;;;5006557;28;20037;-75
2021/12/12 01:44:33;;;;;;;8.18;2.95;;;;;;;;;;4999850;28;20034;-75
2021/12/12 01:47:04;;;;;;;3.90;2.72;;;;;;;;;;4998745;28;20022;-75
2021/12/12 01:49:31;;;;;;;5.18;2.75;;;;;;;;;;5007388;28;20039;-75
2021/12/12 01:51:57;;;;;;;8.18;3.72;;;;;;;;;;5008011;28;20105;-74
2021/12/12 01:54:26;;;;;;;6.05;2.67;;;;;;;;;;5000029;28;20046;-74
2021/12/12 01:56:58;;;;;;;7.13;2.90;;;;;;;;;;5011189;28;20032;-75
2021/12/12 01:59:27;;;;;;;6.03;2.72;;;;;;;;;;5001645;28;20029;-75
2021/12/12 02:01:56;;;;;;;8.13;2.80;;;;;;;;;;5004156;28;20117;-75
2021/12/12 02:04:30;;;;;;;5.10;2.50;;;;;;;;;;5008370;28;20101;-77
2021/12/12 02:06:58;;;;;;;5.78;2.90;;;;;;;;;;4998043;28;20492;-78
2021/12/12 02:09:24;;;;;;;7.10;3.05;;;;;;;;;;5012918;28;20037;-76
2021/12/12 02:11:54;;;;;;;6.25;2.90;;;;;;;;;;4996654;28;20034;-74
2021/12/12 02:14:28;;;;;;;6.25;2.78;;;;;;;;;;5009340;28;20040;-74
2021/12/12 02:16:58;;;;;;;8.63;2.63;;;;;;;;;;4998794;28;20092;-75
2021/12/12 02:19:45;;;;;;;7.32;2.35;;;;;;;;;;5014138;28;20037;-75
2021/12/12 02:23:01;;;;;;;5.38;2.55;;;;;;;;;;5001655;28;20026;-75
2021/12/12 02:36:09;;;;;;;8.30;2.72;;;;;;;;;;5015578;28;20548;-75
2021/12/12 02:38:35;;;;;;;7.07;3.17;;;;;;;;;;4998963;28;20026;-76
2021/12/12 02:41:08;;;;;;;6.95;2.63;;;;;;;;;;5001687;28;20037;-75
2021/12/12 02:43:36;;;;;;;6.80;2.90;;;;;;;;;;5006150;28;20031;-74
2021/12/12 02:46:03;;;;;;;4.45;2.85;;;;;;;;;;5007313;28;20033;-76
2021/12/12 02:48:31;;;;;;;7.03;2.83;;;;;;;;;;5014104;28;20010;-75
2021/12/12 02:50:58;;;;;;;6.88;3.28;;;;;;;;;;5013850;28;20025;-75
2021/12/12 02:53:27;;;;;;;3.58;2.95;;;;;;;;;;5007194;28;20057;-77
2021/12/12 02:55:57;;;;;;;3.95;2.20;;;;;;;;;;5009314;28;20041;-75
2021/12/12 02:58:24;;;;;;;6.00;2.90;;;;;;;;;;5008542;28;20030;-77
2021/12/12 03:01:06;;;;;;;5.07;2.40;;;;;;;;;;4997265;28;20038;-75
2021/12/12 03:03:37;;;;;;;4.63;3.25;;;;;;;;;;5007587;28;20108;-76
2021/12/12 03:06:04;;;;;;;6.25;3.03;;;;;;;;;;5004323;28;20022;-75
2021/12/12 03:08:30;;;;;;;5.43;2.70;;;;;;;;;;5009305;28;20057;-75
2021/12/12 03:10:56;;;;;;;8.25;2.92;;;;;;;;;;5004269;28;20093;-75
2021/12/12 03:13:24;;;;;;;8.20;3.05;;;;;;;;;;4999232;28;20058;-75
2021/12/12 03:15:50;;;;;;;7.50;2.53;;;;;;;;;;5003495;28;20477;-75
2021/12/12 03:18:18;;;;;;;9.73;4.13;;;;;;;;;;5008363;28;20109;-74
2021/12/12 03:20:48;;;;;;;5.20;3.05;;;;;;;;;;4995837;28;20031;-75
2021/12/12 03:23:19;;;;;;;5.45;2.83;;;;;;;;;;5008991;28;20032;-75
2021/12/12 03:25:46;;;;;;;6.47;2.95;;;;;;;;;;5000800;28;20428;-73
2021/12/12 03:28:16;;;;;;;5.90;2.55;;;;;;;;;;4994934;28;20034;-76
2021/12/12 03:30:44;;;;;;;7.53;2.78;;;;;;;;;;4993305;28;20030;-75
2021/12/12 03:33:10;;;;;;;8.00;3.47;;;;;;;;;;5008867;28;20042;-78
2021/12/12 03:35:36;;;;;;;7.60;3.50;;;;;;;;;;5002828;28;20491;-75
2021/12/12 03:38:04;;;;;;;5.47;2.50;;;;;;;;;;5003357;28;20507;-75
2021/12/12 03:40:32;;;;;;;6.47;2.78;;;;;;;;;;5012924;28;20473;-76
2021/12/12 03:43:00;;;;;;;6.57;3.25;;;;;;;;;;5016552;28;20040;-75
2021/12/12 03:45:26;;;;;;;4.88;3.25;;;;;;;;;;5015956;28;20497;-76
2021/12/12 03:47:55;;;;;;;5.72;2.65;;;;;;;;;;5004403;28;20393;-77
2021/12/12 03:50:27;;;;;;;3.72;2.72;;;;;;;;;;5010913;28;20109;-75
2021/12/12 03:52:53;;;;;;;8.27;2.53;;;;;;;;;;5000512;28;20096;-77
2021/12/12 03:55:20;;;;;;;14.40;3.28;;;;;;;;;;5012114;28;20065;-76
2021/12/12 03:57:48;;;;;;;9.15;3.00;;;;;;;;;;5009280;28;20492;-75
2021/12/12 04:00:20;;;;;;;10.60;4.00;;;;;;;;;;5003619;28;20027;-75
2021/12/12 04:02:46;;;;;;;5.15;2.85;;;;;;;;;;5012056;28;20523;-78
2021/12/12 04:05:12;;;;;;;9.07;2.95;;;;;;;;;;4999798;28;20473;-75
2021/12/12 04:07:39;;;;;;;6.38;2.90;;;;;;;;;;5008436;28;20036;-75
2021/12/12 04:10:09;;;;;;;10.88;3.58;;;;;;;;;;5004333;28;20142;-76
2021/12/12 04:12:35;;;;;;;12.05;4.18;;;;;;;;;;5003781;28;20077;-75
2021/12/12 04:15:03;;;;;;;9.75;3.28;;;;;;;;;;5012802;28;20031;-76
2021/12/12 04:17:30;;;;;;;6.95;3.45;;;;;;;;;;5003787;28;20069;-75
2021/12/12 04:19:58;;;;;;;7.97;3.10;;;;;;;;;;5003284;28;20030;-76
2021/12/12 04:22:24;;;;;;;7.40;3.47;;;;;;;;;;5010373;28;20095;-74
2021/12/12 04:24:52;;;;;;;6.55;3.13;;;;;;;;;;5012403;28;20027;-75
2021/12/12 04:27:19;;;;;;;7.95;3.28;;;;;;;;;;5015326;28;20033;-75
2021/12/12 04:29:47;;;;;;;5.47;2.95;;;;;;;;;;5005990;28;20049;-75
2021/12/12 04:32:22;;;;;;;8.68;3.75;;;;;;;;;;5009323;28;20033;-75
2021/12/12 04:34:50;;;;;;;8.07;4.30;;;;;;;;;;4999574;28;20497;-74
2021/12/12 04:37:16;;;;;;;10.20;3.17;;;;;;;;;;5010939;28;20033;-76
2021/12/12 04:39:46;;;;;;;7.00;3.30;;;;;;;;;;5004190;28;20393;-75
2021/12/12 04:42:15;;;;;;;11.93;5.40;;;;;;;;;;5008326;28;20504;-76
2021/12/12 04:44:42;;;;;;;6.15;3.80;;;;;;;;;;4998909;28;20034;-74
2021/12/12 04:50:04;;;;;;;6.95;3.60;;;;;;;;;;5006502;28;20164;-74
2021/12/12 04:52:48;;;;;;;7.97;3.40;;;;;;;;;;5010356;28;20030;-74
2021/12/12 04:55:24;;;;;;;8.30;2.67;;;;;;;;;;5009501;28;20500;-74
2021/12/12 04:57:50;;;;;;;;;;;;;;;;;;5015187;28;20033;-75
2021/12/12 05:00:16;;;;;;;;;;;;;;;;;;5011527;28;20302;-74
2021/12/12 05:03:00;;;;;;;10.85;2.80;;;;;;;;;;4997030;28;19917;-75
2021/12/12 05:05:32;;;;;;;6.03;2.90;;;;;;;;;;5007802;28;20039;-75
2021/12/12 05:07:58;;;;;;;8.65;2.88;;;;;;;;;;5006441;28;20489;-74
2021/12/12 05:10:27;;;;;;;8.88;2.75;;;;;;;;;;5000906;28;20046;-75
2021/12/12 05:13:19;;;;;;;8.98;2.40;;;;;;;;;;5008649;28;20559;-74
2021/12/12 05:15:46;;;;;;;13.00;3.15;;;;;;;;;;5003624;28;20042;-75
2021/12/12 05:18:28;;;;;;;9.23;3.17;;;;;;;;;;5007997;28;20034;-75
2021/12/12 05:20:56;;;;;;;8.60;3.03;;;;;;;;;;5011218;28;20069;-74
2021/12/12 05:23:23;;;;;;;9.40;3.40;;;;;;;;;;5001109;28;20358;-74
2021/12/12 05:25:53;;;;;;;11.07;4.07;;;;;;;;;;5012498;28;20050;-75
2021/12/12 05:28:20;;;;;;;6.63;3.03;;;;;;;;;;5012810;28;20022;-74
2021/12/12 05:30:47;;;;;;;7.90;2.80;;;;;;;;;;4997393;28;20038;-74
2021/12/12 05:33:14;;;;;;;6.07;3.33;;;;;;;;;;5009247;28;20547;-74
2021/12/12 05:35:40;;;;;;;8.40;3.33;;;;;;;;;;5002926;28;20033;-76
2021/12/12 05:38:07;;;;;;;8.90;3.17;;;;;;;;;;5002431;28;20104;-75
2021/12/12 05:40:36;;;;;;;7.88;3.10;;;;;;;;;;4998471;28;20409;-75
2021/12/12 05:43:03;;;;;;;7.50;3.72;;;;;;;;;;4982840;28;20013;-75
2021/12/12 05:45:31;;;;;;;6.60;3.38;;;;;;;;;;5012810;28;20022;-74
2021/12/12 05:47:58;;;;;;;5.90;3.92;;;;;;;;;;5002548;28;20031;-75
2021/12/12 05:50:24;;;;;;;10.43;3.00;;;;;;;;;;5008472;28;20124;-74
2021/12/12 05:52:54;;;;;;;7.45;3.25;;;;;;;;;;4997518;28;20389;-74
2021/12/12 05:55:21;;;;;;;5.80;3.60;;;;;;;;;;5010160;28;20544;-75
2021/12/12 05:57:53;;;;;;;6.18;3.42;;;;;;;;;;5004749;28;20038;-74
2021/12/12 06:00:23;;;;;;;5.43;3.20;;;;;;;;;;5007692;28;20030;-74
2021/12/12 06:02:52;;;;;;;9.05;3.40;;;;;;;;;;4997082;28;20034;-75
2021/12/12 06:05:19;;;;;;;8.35;3.33;;;;;;;;;;5007911;28;20056;-75
2021/12/12 06:07:45;;;;;;;5.55;3.28;;;;;;;;;;4996894;28;20396;-75
2021/12/12 06:10:13;;;;;;;4.47;3.40;;;;;;;;;;5007230;28;20033;-75
2021/12/12 06:12:41;;;;;;;7.15;3.88;;;;;;;;;;4997372;28;20034;-75
2021/12/12 06:15:09;;;;;;;8.15;3.30;;;;;;;;;;4998782;28;20109;-74
2021/12/12 06:17:48;;;;;;;6.28;3.28;;;;;;;;;;5006396;28;20121;-74
2021/12/12 06:20:15;;;;;;;7.25;3.20;;;;;;;;;;5006758;28;20034;-74
2021/12/12 06:22:41;;;;;;;6.30;2.90;;;;;;;;;;4996649;28;20026;-74
2021/12/12 06:25:08;;;;;;;9.20;3.30;;;;;;;;;;5004426;28;20026;-73
2021/12/12 06:27:35;;;;;;;8.38;3.00;;;;;;;;;;5003213;28;20033;-73
2021/12/12 06:30:01;;;;;;;8.50;2.85;;;;;;;;;;5001875;28;20029;-74
2021/12/12 06:32:28;;;;;;;5.88;2.92;;;;;;;;;;5009210;28;20088;-74
2021/12/12 06:34:56;;;;;;;6.88;3.22;;;;;;;;;;4996564;28;20124;-74
2021/12/12 06:37:22;;;;;;;7.85;3.22;;;;;;;;;;5011601;28;20427;-74
2021/12/12 06:39:49;;;;;;;7.97;3.30;;;;;;;;;;5012824;28;20366;-73
2021/12/12 06:42:15;;;;;;;11.48;3.33;;;;;;;;;;5007760;28;20538;-74
2021/12/12 06:44:42;;;;;;;9.10;3.05;;;;;;;;;;5010136;28;20087;-74
2021/12/12 06:47:09;;;;;;;7.13;2.55;;;;;;;;;;4997422;28;20037;-74
2021/12/12 06:49:35;;;;;;;6.50;2.85;;;;;;;;;;5004971;28;20030;-74
2021/12/12 06:52:04;;;;;;;4.70;2.55;;;;;;;;;;5005198;28;20037;-74
2021/12/12 06:54:30;;;;;;;6.53;2.50;;;;;;;;;;4997387;28;20038;-75
2021/12/12 06:56:59;;;;;;;6.97;2.65;;;;;;;;;;5007330;28;20030;-75
2021/12/12 06:59:26;;;;;;;6.65;2.50;;;;;;;;;;5006034;28;20030;-75
2021/12/12 07:01:53;;;;;;;10.63;3.20;;;;;;;;;;4997901;28;20489;-75
2021/12/12 07:04:20;;;;;;;4.40;2.75;;;;;;;;;;4999964;28;20089;-74
2021/12/12 07:06:47;;;;;;;8.27;2.42;;;;;;;;;;5006096;28;20563;-75
2021/12/12 07:09:14;;;;;;;7.57;3.42;;;;;;;;;;5008477;28;20029;-74
2021/12/12 07:11:41;;;;;;;5.65;2.58;;;;;;;;;;5001568;28;20108;-76
2021/12/12 07:14:08;;;;;;;9.25;3.25;;;;;;;;;;5004368;28;20038;-76
2021/12/12 07:16:34;;;;;;;7.38;3.00;;;;;;;;;;5009699;28;20062;-75
2021/12/12 07:19:00;;;;;;;6.72;2.70;;;;;;;;;;5012482;28;20102;-74
2021/12/12 07:21:26;;;;;;;4.95;2.65;;;;;;;;;;5003735;28;20081;-75
2021/12/12 07:23:53;;;;;;;7.22;3.38;;;;;;;;;;5010866;28;20029;-74
2021/12/12 07:26:21;;;;;;;6.07;2.53;;;;;;;;;;5002225;28;20362;-74
2021/12/12 07:28:48;;;;;;;8.55;2.92;;;;;;;;;;4998955;28;20022;-74
2021/12/12 07:31:17;;;;;;;6.53;3.20;;;;;;;;;;5016336;28;20113;-74
2021/12/12 07:33:45;;;;;;;7.00;3.33;;;;;;;;;;5004635;28;20031;-75
2021/12/12 07:36:11;;;;;;;15.63;4.38;;;;;;;;;;4996806;28;20037;-75
2021/12/12 07:38:41;;;;;;;10.52;3.20;;;;;;;;;;5008697;28;20034;-75
2021/12/12 07:41:08;;;;;;;8.43;3.35;;;;;;;;;;5014310;28;20423;-75
2021/12/12 07:43:34;;;;;;;10.05;3.80;;;;;;;;;;4996745;28;20058;-74
2021/12/12 07:46:00;;;;;;;5.68;3.25;;;;;;;;;;4996157;28;20026;-75
2021/12/12 07:48:27;;;;;;;7.28;2.90;;;;;;;;;;4997464;28;20081;-75
2021/12/12 07:50:53;;;;;;;4.35;2.80;;;;;;;;;;4997186;28;20105;-75
2021/12/12 07:53:19;;;;;;;7.78;3.65;;;;;;;;;;4998133;28;20046;-74
2021/12/12 07:55:47;;;;;;;5.70;3.00;;;;;;;;;;4997591;28;20535;-74
2021/12/12 07:58:15;;;;;;;8.05;3.05;;;;;;;;;;5001788;28;20515;-75
2021/12/12 08:00:42;;;;;;;9.45;2.75;;;;;;;;;;4977813;28;20058;-74
2021/12/12 08:03:09;;;;;;;7.07;3.10;;;;;;;;;;4978042;28;20102;-74
2021/12/12 08:05:36;;;;;;;6.25;2.97;;;;;;;;;;4998770;28;20022;-74
2021/12/12 08:08:04;;;;;;;6.07;2.88;;;;;;;;;;5016290;28;20057;-75
2021/12/12 08:10:31;;;;;;;7.03;2.90;;;;;;;;;;5015578;28;20109;-74
2021/12/12 08:12:58;;;;;;;7.53;3.45;;;;;;;;;;5016601;28;20026;-75
2021/12/12 08:15:26;;;;;;;4.53;2.88;;;;;;;;;;4999505;28;20038;-75
2021/12/12 08:17:52;;;;;;;3.75;2.78;;;;;;;;;;4998710;28;20022;-73
2021/12/12 08:20:18;;;;;;;5.63;2.75;;;;;;;;;;4996931;28;20080;-77
2021/12/12 08:22:47;;;;;;;7.10;3.55;;;;;;;;;;5011311;28;20026;-73
2021/12/12 08:25:13;;;;;;;5.78;3.33;;;;;;;;;;5013967;28;20477;-74
2021/12/12 08:27:40;;;;;;;8.13;3.13;;;;;;;;;;5005324;28;20023;-75
2021/12/12 08:30:06;;;;;;;10.00;3.65;;;;;;;;;;5004460;28;20026;-75
2021/12/12 08:32:36;;;;;;;6.32;3.42;;;;;;;;;;5002413;28;20031;-75
2021/12/12 08:35:02;;;;;;;7.38;4.57;;;;;;;;;;5002101;28;20026;-74
2021/12/12 08:37:29;;;;;;;11.77;4.38;;;;;;;;;;5002299;28;20456;-77
2021/12/12 08:39:55;;;;;;;14.48;6.22;;;;;;;;;;4994866;28;20034;-74
2021/12/12 08:42:26;;;;;;;10.60;5.22;;;;;;;;;;5014845;28;20473;-75
2021/12/12 08:44:53;;;;;;;8.98;4.78;;;;;;;;;;5011050;28;20110;-75
2021/12/12 08:47:19;;;;;;;10.23;5.25;;;;;;;;;;4986320;28;20058;-75
2021/12/12 08:49:45;;;;;;;8.10;4.93;;;;;;;;;;5027738;28;20057;-75
2021/12/12 08:52:13;;;;;;;11.20;4.50;;;;;;;;;;5013487;28;20033;-75
2021/12/12 08:54:50;;;;;;;12.45;5.38;;;;;;;;;;5012379;28;20104;-75
2021/12/12 08:57:34;;;;;;;12.30;5.25;;;;;;;;;;5012437;28;20034;-74
2021/12/12 09:00:02;;;;;;;15.48;4.80;;;;;;;;;;5013154;28;20028;-74
2021/12/12 09:02:28;;;;;;;16.45;8.52;;;;;;;;;;5012142;28;20112;-75
2021/12/12 09:05:16;;;;;;;16.65;8.02;;;;;;;;;;4999841;28;20084;-74
2021/12/12 09:07:46;;;;;;;14.82;9.82;;;;;;;;;;4989425;28;20019;-75
2021/12/12 09:10:21;;;;;;;12.65;7.13;;;;;;;;;;5008440;28;20389;-73
2021/12/12 09:13:11;;;;;;;10.68;5.95;;;;;;;;;;5002189;28;20038;-76
2021/12/12 09:15:39;;;;;;;12.40;5.85;;;;;;;;;;4976252;28;20046;-74
2021/12/12 09:18:08;;;;;;;12.68;6.70;;;;;;;;;;5013572;28;20026;-75
2021/12/12 09:20:50;;;;;;;11.25;6.28;;;;;;;;;;4997566;28;20036;-76
2021/12/12 09:23:22;;;;;;;8.85;5.18;;;;;;;;;;5012434;28;20010;-75
2021/12/12 09:25:53;;;;;;;8.25;4.03;;;;;;;;;;5011539;28;20025;-76
2021/12/12 09:28:35;;;;;;;6.35;3.58;;;;;;;;;;5016293;28;20026;-75
2021/12/12 09:31:04;;;;;;;7.15;4.25;;;;;;;;;;5007621;28;20030;-72
2021/12/12 09:33:33;;;;;;;11.95;5.35;;;;;;;;;;5021618;28;20054;-75
2021/12/12 09:36:05;;;;;;;8.32;4.97;;;;;;;;;;4999792;28;20100;-76
2021/12/12 09:38:31;;;;;;;10.80;6.53;;;;;;;;;;5020185;28;20079;-75
2021/12/12 09:41:04;;;;;;;11.75;5.55;;;;;;;;;;5003263;28;20034;-75
2021/12/12 09:43:30;;;;;;;9.48;3.67;;;;;;;;;;5011430;28;20030;-79
2021/12/12 09:46:02;;;;;;;11.65;5.05;;;;;;;;;;5013357;28;20484;-75
2021/12/12 09:51:14;;;;;;;9.98;4.30;;;;;;;;;;5016479;28;20032;-76
2021/12/12 09:51:23;;;;;;;5.30;3.17;;;;;;;;;;5021296;28;20042;-76
2021/12/12 09:54:09;;;;;;;6.53;2.72;;;;;;;;;;5019862;28;20080;-73
2021/12/12 09:56:56;;;;;;;8.88;2.88;;;;;;;;;;5012712;28;20085;-73
2021/12/12 09:59:41;;;;;;;5.18;3.10;;;;;;;;;;5007967;28;20026;-74
2021/12/12 10:02:17;;;;;;;7.57;2.75;;;;;;;;;;5021482;28;20030;-75
2021/12/12 10:04:57;;;;;;;10.20;2.63;;;;;;;;;;5020201;28;20030;-75
2021/12/12 10:07:46;;;;;;;11.63;2.72;;;;;;;;;;5007422;28;20029;-73
2021/12/12 10:10:16;;;;;;;7.15;2.15;;;;;;;;;;5013580;28;20030;-75
2021/12/12 10:12:46;;;;;;;7.43;2.55;;;;;;;;;;5012500;28;20064;-74
2021/12/12 10:15:18;;;;;;;9.50;2.10;;;;;;;;;;5021271;28;20034;-74
2021/12/12 10:17:46;;;;;;;5.88;2.30;;;;;;;;;;5007101;28;20034;-74
2021/12/12 10:20:21;;;;;;;4.78;2.00;;;;;;;;;;5010488;28;20026;-74
2021/12/12 10:23:08;;;;;;;2.80;1.80;;;;;;;;;;5011418;28;20393;-75
2021/12/12 10:25:40;;;;;;;6.35;2.45;;;;;;;;;;5013737;28;20109;-75
2021/12/12 10:28:25;;;;;;;3.60;1.77;;;;;;;;;;4998339;28;20057;-76
2021/12/12 10:31:14;;;;;;;3.17;2.00;;;;;;;;;;5016671;28;20022;-74
2021/12/12 10:33:44;;;;;;;2.97;2.22;;;;;;;;;;5020958;28;20269;-75
2021/12/12 10:36:12;;;;;;;3.40;1.70;;;;;;;;;;5019430;28;20037;-73
2021/12/12 10:38:57;;;;;;;3.97;1.60;;;;;;;;;;5021447;28;20037;-76
2021/12/12 10:41:34;;;;;;;1.60;1.50;;;;;;;;;;5020433;28;20041;-75
2021/12/12 10:44:07;;;;;;;2.65;1.67;;;;;;;;;;4990847;28;20061;-74
2021/12/12 10:46:36;;;;;;;3.30;1.52;;;;;;;;;;5003145;28;20031;-77
2021/12/12 10:49:07;;;;;;;3.05;1.58;;;;;;;;;;5021161;28;20026;-76
2021/12/12 10:51:38;;;;;;;1.95;1.50;;;;;;;;;;5002921;28;20054;-76
2021/12/12 10:54:18;;;;;;;3.60;1.70;;;;;;;;;;5009967;28;20041;-78
2021/12/12 10:56:53;;;;;;;1.85;1.55;;;;;;;;;;5007139;28;20053;-73
2021/12/12 10:59:29;;;;;;;2.83;1.27;;;;;;;;;;5020914;28;20022;-73
2021/12/12 11:01:57;;;;;;;1.50;1.40;;;;;;;;;;5013863;28;20049;-76
2021/12/12 11:04:38;;;;;;;1.63;1.38;;;;;;;;;;5013581;28;20084;-76
2021/12/12 11:07:07;;;;;;;1.60;1.50;;;;;;;;;;5005976;28;20030;-75
2021/12/12 11:09:38;;;;;;;1.33;1.20;;;;;;;;;;5001944;28;20030;-75
2021/12/12 11:12:25;;;;;;;1.48;1.38;;;;;;;;;;5010865;28;20028;-74
2021/12/12 11:14:54;;;;;;;1.50;1.40;;;;;;;;;;5019677;28;20501;-76
2021/12/12 11:17:30;;;;;;;1.88;1.48;;;;;;;;;;5004398;28;20470;-76
2021/12/12 11:20:05;;;;;;;1.50;1.40;;;;;;;;;;5021017;28;20076;-77
2021/12/12 11:22:34;;;;;;;3.70;1.43;;;;;;;;;;5009315;28;20086;-74
2021/12/12 11:25:25;;;;;;;2.15;1.50;;;;;;;;;;5002381;28;20026;-77
2021/12/12 11:27:55;;;;;;;2.15;1.60;;;;;;;;;;5007720;28;20026;-75
2021/12/12 11:30:28;;;;;;;2.45;1.50;;;;;;;;;;5009017;28;20029;-76
2021/12/12 11:32:55;;;;;;;2.30;2.10;;;;;;;;;;5017401;28;20029;-76
2021/12/12 11:35:22;;;;;;;1.80;1.65;;;;;;;;;;5016748;28;20026;-75
2021/12/12 11:37:55;;;;;;;1.92;1.60;;;;;;;;;;5001740;28;20070;-73
2021/12/12 11:40:28;;;;;;;3.58;2.38;;;;;;;;;;5011728;28;20507;-76
2021/12/12 11:43:23;;;;;;;6.97;2.22;;;;;;;;;;5005827;28;20034;-72
2021/12/12 11:45:58;;;;;;;3.00;2.50;;;;;;;;;;5005504;28;20116;-74
2021/12/12 11:48:31;;;;;;;4.30;2.67;;;;;;;;;;5022736;28;20018;-73
2021/12/12 11:50:57;;;;;;;1.83;1.67;;;;;;;;;;5005282;28;20053;-73
2021/12/12 11:53:41;;;;;;;1.92;1.50;;;;;;;;;;5000300;28;20042;-75
2021/12/12 11:56:10;;;;;;;1.67;1.58;;;;;;;;;;5012056;28;20030;-76
2021/12/12 11:58:41;;;;;;;4.72;1.90;;;;;;;;;;5022516;28;20060;-76
2021/12/12 12:01:26;;;;;;;2.40;1.80;;;;;;;;;;5023855;28;20400;-75
2021/12/12 12:04:12;;;;;;;2.30;2.10;;;;;;;;;;5016760;28;20023;-74
2021/12/12 12:06:41;;;;;;;1.73;1.63;;;;;;;;;;5018461;28;20863;-76
2021/12/12 12:09:07;;;;;;;1.73;1.60;;;;;;;;;;5006756;28;20042;-73
2021/12/12 12:11:51;;;;;;;2.40;1.80;;;;;;;;;;5017677;28;20080;-75
2021/12/12 12:14:24;;;;;;;1.58;1.48;;;;;;;;;;5015818;28;20054;-73
2021/12/12 12:17:08;;;;;;;1.63;1.48;;;;;;;;;;5023868;28;20076;-74
2021/12/12 12:19:48;;;;;;;1.83;1.50;;;;;;;;;;5023691;28;20026;-75
2021/12/12 12:22:29;;;;;;;1.48;1.40;;;;;;;;;;5016728;28;20048;-75
2021/12/12 12:25:12;;;;;;;1.60;1.50;;;;;;;;;;5011658;28;20057;-75
2021/12/12 12:27:43;;;;;;;1.50;1.40;;;;;;;;;;5025691;28;20536;-75
2021/12/12 12:30:28;;;;;;;1.80;1.55;;;;;;;;;;5014608;28;20025;-75
2021/12/12 12:33:12;;;;;;;3.03;1.42;;;;;;;;;;5019974;28;20034;-76
2021/12/12 12:35:57;;;;;;;1.40;1.30;;;;;;;;;;5019496;28;20053;-76
2021/12/12 12:38:35;;;;;;;1.83;1.70;;;;;;;;;;5004451;28;20062;-75
2021/12/12 12:41:04;;;;;;;2.10;1.80;;;;;;;;;;5004289;28;20027;-75
2021/12/12 12:43:49;;;;;;;1.90;1.70;;;;;;;;;;5005439;28;20019;-74
2021/12/12 12:46:46;;;;;;;2.20;2.00;;;;;;;;;;5005782;28;20046;-74
2021/12/12 12:49:31;;;;;;;1.50;1.40;;;;;;;;;;5018155;28;20032;-74
2021/12/12 12:52:04;;;;;;;1.70;1.60;;;;;;;;;;4985972;28;20086;-76
2021/12/12 12:54:32;;;;;;;1.88;1.70;;;;;;;;;;5010589;28;20042;-73
2021/12/12 12:57:08;;;;;;;1.80;1.70;;;;;;;;;;5009210;28;20090;-74
2021/12/12 12:59:37;;;;;;;1.88;1.67;;;;;;;;;;5001504;28;20508;-74
2021/12/12 13:02:12;;;;;;;3.55;1.80;;;;;;;;;;5004465;28;20031;-74
2021/12/12 13:05:07;;;;;;;1.60;1.50;;;;;;;;;;5004339;28;20051;-74
2021/12/12 13:07:39;;;;;;;2.17;1.92;;;;;;;;;;5005900;28;20033;-73
2021/12/12 13:10:07;;;;;;;2.20;1.60;;;;;;;;;;5005515;28;20092;-73
2021/12/12 13:12:54;;;;;;;1.50;1.40;;;;;;;;;;5018931;28;20030;-73
2021/12/12 13:15:28;;;;;;;1.70;1.60;;;;;;;;;;5024106;28;20030;-78
2021/12/12 13:18:07;;;;;;;1.37;1.27;;;;;;;;;;5014352;28;20022;-73
2021/12/12 13:20:45;;;;;;;1.90;1.27;;;;;;;;;;5026863;28;20079;-73
2021/12/12 13:23:25;;;;;;;1.40;1.30;;;;;;;;;;5021338;28;20074;-75
2021/12/12 13:26:01;;;;;;;1.55;1.45;;;;;;;;;;5005337;28;20078;-75
2021/12/12 13:28:52;;;;;;;2.15;1.60;;;;;;;;;;5015748;28;20017;-76
2021/12/12 13:31:27;;;;;;;2.47;2.28;;;;;;;;;;5004782;28;20072;-73
2021/12/12 13:33:59;;;;;;;3.80;3.10;;;;;;;;;;5004920;28;20023;-73
2021/12/12 13:36:37;;;;;;;5.78;2.72;;;;;;;;;;5015056;28;20029;-75
2021/12/12 13:39:09;;;;;;;3.13;2.65;;;;;;;;;;5006863;28;20034;-78
2021/12/12 13:41:54;;;;;;;19.88;8.70;;;;;;;;;;5007486;28;20060;-74
2021/12/12 13:44:30;;;;;;;11.45;7.30;;;;;;;;;;5010613;28;20022;-75
2021/12/12 13:46:56;;;;;;;8.15;4.10;;;;;;;;;;5018731;28;20018;-73
2021/12/12 13:49:25;;;;;;;15.55;7.35;;;;;;;;;;5022190;28;20026;-75
2021/12/12 13:52:03;;;;;;;7.57;4.38;;;;;;;;;;5022264;28;20068;-75
2021/12/12 13:54:39;;;;;;;38.63;18.40;;;;;;;;;;5022179;28;20054;-76
2021/12/12 13:57:05;;;;;;;;;;;;;;;;;;5005494;28;20030;-74
2021/12/12 13:59:34;;;;;;;38.80;17.42;;;;;;;;;;5001584;28;19910;-75
2021/12/12 14:02:08;;;;;;;57.58;26.23;;;;;;;;;;5001943;28;20026;-75
2021/12/12 14:04:46;;;;;;;30.53;16.90;;;;;;;;;;5013155;28;20026;-74
2021/12/12 14:07:13;;;;;;;51.58;26.80;;;;;;;;;;4998755;28;20625;-76
2021/12/12 14:09:40;;;;;;;25.35;12.93;;;;;;;;;;5008679;28;20511;-76
2021/12/12 14:12:07;;;;;;;27.80;16.90;;;;;;;;;;5002993;28;20033;-75
2021/12/12 14:14:38;;;;;;;12.65;8.10;;;;;;;;;;5006539;28;20032;-75
2021/12/12 14:17:10;;;;;;;9.93;7.38;;;;;;;;;;4995785;28;20388;-74
2021/12/12 14:19:39;;;;;;;4.15;3.75;;;;;;;;;;5015514;28;20045;-75
2021/12/12 14:22:07;;;;;;;5.97;4.10;;;;;;;;;;5011291;28;20053;-74
2021/12/12 14:24:39;;;;;;;6.97;6.28;;;;;;;;;;5008812;28;20022;-75
2021/12/12 14:27:07;;;;;;;4.72;3.47;;;;;;;;;;4996848;28;20096;-75
2021/12/12 14:29:34;;;;;;;6.93;3.70;;;;;;;;;;4999071;28;20028;-74
2021/12/12 14:32:03;;;;;;;3.90;3.45;;;;;;;;;;5005768;28;20105;-76
2021/12/12 14:34:47;;;;;;;3.97;2.85;;;;;;;;;;5005902;28;20033;-77
2021/12/12 14:37:23;;;;;;;2.47;2.00;;;;;;;;;;4998177;28;20386;-75
2021/12/12 14:39:48;;;;;;;;;;;;;;;;;;5008414;28;20018;-76
2021/12/12 14:42:26;;;;;;;3.92;2.40;;;;;;;;;;5003699;28;19916;-76
2021/12/12 14:44:57;;;;;;;4.40;3.65;;;;;;;;;;4998147;28;20026;-77
2021/12/12 14:47:29;;;;;;;4.82;3.33;;;;;;;;;;5009087;28;20101;-75
2021/12/12 14:49:57;;;;;;;6.28;3.28;;;;;;;;;;4996765;28;20027;-75
2021/12/12 14:52:23;;;;;;;4.75;2.40;;;;;;;;;;5006718;28;20026;-76
2021/12/12 14:54:54;;;;;;;9.60;3.75;;;;;;;;;;4999481;28;20046;-75
2021/12/12 14:57:26;;;;;;;7.85;4.20;;;;;;;;;;5009640;28;20034;-76
2021/12/12 14:59:55;;;;;;;5.50;2.80;;;;;;;;;;5000786;28;20034;-76
2021/12/12 15:02:25;;;;;;;6.15;3.70;;;;;;;;;;5000819;28;20173;-75
2021/12/12 15:04:56;;;;;;;5.95;2.55;;;;;;;;;;5008733;28;20033;-75
2021/12/12 15:07:22;;;;;;;5.95;2.72;;;;;;;;;;4996519;28;20038;-74
2021/12/12 15:09:54;;;;;;;5.07;2.63;;;;;;;;;;5004761;28;20089;-75
2021/12/12 15:12:25;;;;;;;5.38;3.20;;;;;;;;;;4999983;28;20042;-75
2021/12/12 15:15:00;;;;;;;5.55;2.35;;;;;;;;;;5008485;28;20026;-76
2021/12/12 15:17:27;;;;;;;7.13;3.05;;;;;;;;;;4996871;28;20025;-75
2021/12/12 15:19:56;;;;;;;7.30;2.53;;;;;;;;;;5006656;28;20034;-75